createdAt,value
2023-02-04T00:00:36.771Z,28.60
2023-02-04T00:01:36.760Z,31.80
2023-02-04T00:02:36.738Z,25.00
2023-02-04T00:03:36.685Z,35.40
2023-02-04T00:04:36.655Z,28.50
2023-02-04T00:05:36.651Z,31.70
2023-02-04T00:06:36.599Z,35.30
2023-02-04T00:07:36.571Z,31.60
2023-02-04T00:08:36.544Z,30.60
2023-02-04T00:09:36.511Z,33.60
2023-02-04T00:10:36.489Z,30.30
2023-02-04T00:11:36.455Z,33.50
2023-02-04T00:12:36.428Z,33.00
2023-02-04T00:13:36.397Z,27.80
2023-02-04T00:14:36.369Z,30.70
2023-02-04T00:15:36.344Z,28.10
2023-02-04T00:16:36.312Z,30.30
2023-02-04T00:17:36.307Z,33.50
2023-02-04T00:18:36.259Z,26.10
2023-02-04T00:19:36.227Z,31.20
2023-02-04T00:20:36.199Z,29.90
2023-02-04T00:21:36.169Z,27.80
2023-02-04T00:22:36.142Z,35.50
2023-02-04T00:23:36.112Z,27.00
2023-02-04T00:24:36.087Z,25.90
2023-02-04T00:25:36.056Z,30.30
2023-02-04T00:26:36.036Z,29.30
2023-02-04T00:27:35.997Z,29.30
2023-02-04T00:28:35.976Z,25.00
2023-02-04T00:29:35.944Z,25.90
2023-02-04T00:30:35.920Z,31.30
2023-02-04T00:31:36.002Z,26.00
2023-02-04T00:32:35.860Z,25.30
2023-02-04T00:33:35.845Z,26.00
2023-02-04T00:34:35.801Z,32.50
2023-02-04T00:35:35.774Z,36.50
2023-02-04T00:36:35.742Z,29.70
2023-02-04T00:37:35.712Z,30.60
2023-02-04T00:38:35.689Z,26.80
2023-02-04T00:39:35.662Z,29.50
2023-02-04T00:40:35.631Z,28.50
2023-02-04T00:41:35.603Z,25.90
2023-02-04T00:42:35.572Z,26.10
2023-02-04T00:43:35.550Z,26.70
2023-02-04T00:44:35.513Z,38.10
2023-02-04T00:45:35.506Z,29.10
2023-02-04T00:46:35.461Z,23.90
2023-02-04T00:47:35.430Z,29.50
2023-02-04T00:48:35.400Z,26.30
2023-02-04T00:49:35.398Z,31.80
2023-02-04T00:50:35.345Z,33.30
2023-02-04T00:51:35.317Z,32.20
2023-02-04T00:52:35.293Z,34.60
2023-02-04T00:53:35.260Z,27.60
2023-02-04T00:54:35.231Z,28.50
2023-02-04T00:55:35.200Z,29.70
2023-02-04T00:56:35.172Z,29.40
2023-02-04T00:57:35.158Z,26.30
2023-02-04T00:58:35.117Z,32.00
2023-02-04T00:59:35.097Z,28.20
2023-02-04T01:00:35.085Z,31.70
2023-02-04T01:01:35.028Z,27.90
2023-02-04T01:02:35.026Z,33.30
2023-02-04T01:03:34.972Z,27.60
2023-02-04T01:04:34.961Z,31.10
2023-02-04T01:05:34.936Z,27.70
2023-02-04T01:06:34.895Z,26.90
2023-02-04T01:07:34.956Z,30.20
2023-02-04T01:08:34.834Z,30.40
2023-02-04T01:09:35.023Z,27.70
2023-02-04T01:10:34.785Z,30.70
2023-02-04T01:11:34.750Z,34.70
2023-02-04T01:12:34.724Z,31.80
2023-02-04T01:13:34.691Z,35.90
2023-02-04T01:14:34.701Z,27.40
2023-02-04T01:15:34.643Z,30.00
2023-02-04T01:16:34.707Z,33.10
2023-02-04T01:17:34.580Z,28.70
2023-02-04T01:18:34.548Z,25.40
2023-02-04T01:19:34.517Z,29.70
2023-02-04T01:20:34.492Z,23.20
2023-02-04T01:21:34.485Z,32.50
2023-02-04T01:22:34.445Z,33.50
2023-02-04T01:23:34.407Z,27.30
2023-02-04T01:24:34.395Z,27.40
2023-02-04T01:25:34.353Z,41.70
2023-02-04T01:26:34.323Z,28.90
2023-02-04T01:27:34.291Z,30.30
2023-02-04T01:28:34.264Z,28.30
2023-02-04T01:29:34.239Z,34.60
2023-02-04T01:30:34.306Z,29.40
2023-02-04T01:31:34.300Z,28.70
2023-02-04T01:32:34.158Z,32.10
2023-02-04T01:33:34.120Z,30.80
2023-02-04T01:34:34.095Z,28.90
2023-02-04T01:35:34.068Z,26.40
2023-02-04T01:36:34.037Z,32.70
2023-02-04T01:37:34.027Z,27.70
2023-02-04T01:38:33.981Z,30.50
2023-02-04T01:39:33.950Z,34.70
2023-02-04T01:40:33.921Z,32.70
2023-02-04T01:41:33.891Z,30.70
2023-02-04T01:42:33.866Z,26.40
2023-02-04T01:43:33.842Z,31.20
2023-02-04T01:44:33.808Z,36.60
2023-02-04T01:45:33.869Z,25.30
2023-02-04T01:46:33.752Z,32.10
2023-02-04T01:47:33.726Z,26.50
2023-02-04T01:48:33.697Z,25.80
2023-02-04T01:49:33.667Z,28.40
2023-02-04T01:50:33.840Z,25.60
2023-02-04T01:51:33.609Z,33.70
2023-02-04T01:52:33.581Z,31.80
2023-02-04T01:53:33.575Z,30.60
2023-02-04T01:54:33.533Z,29.50
2023-02-04T01:55:33.493Z,34.60
2023-02-04T01:56:33.473Z,34.20
2023-02-04T01:57:33.434Z,32.00
2023-02-04T01:58:33.412Z,34.20
2023-02-04T01:59:33.379Z,36.60
2023-02-04T02:00:33.772Z,28.00
2023-02-04T02:01:33.321Z,29.90
2023-02-04T02:02:33.367Z,33.80
2023-02-04T02:03:33.262Z,38.00
2023-02-04T02:04:33.238Z,31.70
2023-02-04T02:05:33.207Z,25.80
2023-02-04T02:06:33.206Z,24.90
2023-02-04T02:07:33.354Z,29.40
2023-02-04T02:08:33.124Z,34.20
2023-02-04T02:09:33.133Z,29.10
2023-02-04T02:10:33.427Z,29.60
2023-02-04T02:11:33.242Z,33.10
2023-02-04T02:12:33.006Z,28.40
2023-02-04T02:13:32.984Z,24.60
2023-02-04T02:14:32.954Z,31.90
2023-02-04T02:15:32.922Z,30.60
2023-02-04T02:16:32.974Z,40.60
2023-02-04T02:17:32.871Z,36.80
2023-02-04T02:18:32.834Z,32.60
2023-02-04T02:19:32.806Z,29.80
2023-02-04T02:20:33.152Z,25.30
2023-02-04T02:21:32.750Z,28.90
2023-02-04T02:22:32.724Z,29.90
2023-02-04T02:23:32.708Z,30.30
2023-02-04T02:24:32.665Z,29.80
2023-02-04T02:25:32.659Z,32.00
2023-02-04T02:26:32.616Z,31.30
2023-02-04T02:27:32.582Z,26.80
2023-02-04T02:28:32.550Z,29.90
2023-02-04T02:29:32.522Z,26.20
2023-02-04T02:30:32.968Z,23.60
2023-02-04T02:31:32.541Z,29.20
2023-02-04T02:32:32.434Z,31.60
2023-02-04T02:33:32.411Z,26.40
2023-02-04T02:34:32.380Z,27.30
2023-02-04T02:35:32.352Z,27.80
2023-02-04T02:36:32.321Z,28.10
2023-02-04T02:37:32.298Z,30.00
2023-02-04T02:38:32.266Z,29.10
2023-02-04T02:39:32.238Z,25.40
2023-02-04T02:40:32.612Z,32.70
2023-02-04T02:41:32.200Z,29.20
2023-02-04T02:42:32.152Z,34.00
2023-02-04T02:43:32.124Z,35.10
2023-02-04T02:44:32.094Z,33.50
2023-02-04T02:45:32.067Z,33.30
2023-02-04T02:46:32.037Z,29.50
2023-02-04T02:47:32.016Z,28.60
2023-02-04T02:48:31.978Z,36.80
2023-02-04T02:49:31.951Z,34.50
2023-02-04T02:50:32.351Z,23.60
2023-02-04T02:51:31.932Z,31.60
2023-02-04T02:52:31.863Z,29.60
2023-02-04T02:53:31.841Z,29.50
2023-02-04T02:54:31.809Z,25.20
2023-02-04T02:55:31.778Z,36.30
2023-02-04T02:56:31.748Z,27.20
2023-02-04T02:57:31.742Z,34.70
2023-02-04T02:58:31.690Z,28.20
2023-02-04T02:59:31.669Z,27.10
2023-02-04T03:00:31.988Z,25.20
2023-02-04T03:01:31.617Z,30.30
2023-02-04T03:02:31.614Z,27.10
2023-02-04T03:03:31.577Z,29.70
2023-02-04T03:04:31.521Z,32.80
2023-02-04T03:05:31.506Z,31.40
2023-02-04T03:06:31.466Z,32.90
2023-02-04T03:07:31.436Z,34.90
2023-02-04T03:08:31.409Z,35.40
2023-02-04T03:09:31.379Z,31.00
2023-02-04T03:10:31.678Z,29.90
2023-02-04T03:11:31.322Z,30.60
2023-02-04T03:12:31.292Z,26.60
2023-02-04T03:13:31.285Z,31.50
2023-02-04T03:14:31.239Z,32.30
2023-02-04T03:15:31.271Z,30.40
2023-02-04T03:16:31.178Z,32.20
2023-02-04T03:17:31.153Z,37.70
2023-02-04T03:18:31.123Z,30.60
2023-02-04T03:19:31.095Z,31.30
2023-02-04T03:20:31.378Z,32.80
2023-02-04T03:21:31.050Z,29.30
2023-02-04T03:22:31.020Z,30.60
2023-02-04T03:23:30.984Z,22.70
2023-02-04T03:24:30.956Z,39.40
2023-02-04T03:25:30.928Z,33.30
2023-02-04T03:26:30.898Z,35.00
2023-02-04T03:27:30.873Z,29.10
2023-02-04T03:28:30.839Z,31.00
2023-02-04T03:29:30.832Z,30.30
2023-02-04T03:30:31.149Z,31.80
2023-02-04T03:31:30.882Z,33.20
2023-02-04T03:32:30.737Z,26.30
2023-02-04T03:33:30.714Z,34.50
2023-02-04T03:34:30.676Z,29.80
2023-02-04T03:35:30.652Z,33.20
2023-02-04T03:36:30.623Z,35.70
2023-02-04T03:37:30.594Z,28.10
2023-02-04T03:38:30.560Z,24.70
2023-02-04T03:39:30.545Z,30.30
2023-02-04T03:40:30.825Z,30.50
2023-02-04T03:41:30.477Z,33.20
2023-02-04T03:42:30.446Z,25.80
2023-02-04T03:43:31.981Z,34.10
2023-02-04T03:44:30.392Z,27.50
2023-02-04T03:45:37.530Z,26.90
2023-02-04T03:46:30.442Z,30.80
2023-02-04T03:47:30.307Z,26.60
2023-02-04T03:48:30.277Z,36.60
2023-02-04T03:49:30.251Z,28.30
2023-02-04T03:50:30.730Z,34.60
2023-02-04T03:51:30.195Z,28.90
2023-02-04T03:52:30.185Z,36.80
2023-02-04T03:53:30.142Z,27.00
2023-02-04T03:54:30.117Z,26.10
2023-02-04T03:55:30.082Z,29.90
2023-02-04T03:56:30.052Z,35.80
2023-02-04T03:57:30.023Z,32.50
2023-02-04T03:58:29.992Z,24.20
2023-02-04T03:59:29.969Z,34.10
2023-02-04T04:00:30.353Z,32.70
2023-02-04T04:01:30.033Z,36.40
2023-02-04T04:02:29.952Z,28.50
2023-02-04T04:03:29.861Z,30.50
2023-02-04T04:04:29.822Z,27.70
2023-02-04T04:05:29.797Z,34.10
2023-02-04T04:06:29.770Z,28.20
2023-02-04T04:07:29.743Z,30.70
2023-02-04T04:08:29.712Z,34.50
2023-02-04T04:09:29.684Z,36.80
2023-02-04T04:10:29.878Z,28.50
2023-02-04T04:11:29.640Z,30.60
2023-02-04T04:12:29.597Z,30.60
2023-02-04T04:13:29.571Z,28.30
2023-02-04T04:14:29.543Z,28.90
2023-02-04T04:15:29.529Z,26.60
2023-02-04T04:16:29.516Z,33.50
2023-02-04T04:17:29.527Z,25.70
2023-02-04T04:18:29.431Z,30.40
2023-02-04T04:19:29.404Z,35.30
2023-02-04T04:20:29.560Z,24.10
2023-02-04T04:21:29.344Z,37.10
2023-02-04T04:22:29.313Z,29.40
2023-02-04T04:23:29.288Z,31.70
2023-02-04T04:24:29.259Z,30.70
2023-02-04T04:25:29.230Z,24.00
2023-02-04T04:26:29.200Z,34.00
2023-02-04T04:27:29.179Z,32.80
2023-02-04T04:28:29.140Z,25.50
2023-02-04T04:29:29.117Z,26.00
2023-02-04T04:30:29.206Z,34.50
2023-02-04T04:31:29.188Z,32.30
2023-02-04T04:32:29.026Z,33.10
2023-02-04T04:33:29.027Z,29.30
2023-02-04T04:34:28.970Z,33.00
2023-02-04T04:35:28.944Z,28.20
2023-02-04T04:36:28.915Z,36.20
2023-02-04T04:37:28.896Z,37.40
2023-02-04T04:38:28.856Z,26.10
2023-02-04T04:39:28.831Z,34.40
2023-02-04T04:40:28.800Z,31.30
2023-02-04T04:41:28.778Z,28.20
2023-02-04T04:42:28.741Z,31.60
2023-02-04T04:43:28.722Z,28.30
2023-02-04T04:44:28.684Z,28.90
2023-02-04T04:45:28.668Z,29.60
2023-02-04T04:46:28.646Z,40.10
2023-02-04T04:47:28.602Z,32.50
2023-02-04T04:48:28.594Z,26.10
2023-02-04T04:49:28.560Z,24.20
2023-02-04T04:50:28.516Z,36.30
2023-02-04T04:51:28.488Z,29.30
2023-02-04T04:52:28.455Z,23.00
2023-02-04T04:53:28.435Z,37.80
2023-02-04T04:54:28.403Z,26.90
2023-02-04T04:55:28.378Z,27.90
2023-02-04T04:56:28.352Z,29.70
2023-02-04T04:57:28.319Z,34.60
2023-02-04T04:58:28.292Z,28.60
2023-02-04T04:59:28.264Z,28.80
2023-02-04T05:00:28.232Z,30.20
2023-02-04T05:01:28.209Z,39.30
2023-02-04T05:02:28.177Z,35.00
2023-02-04T05:03:28.156Z,25.30
2023-02-04T05:04:28.253Z,31.10
2023-02-04T05:05:28.113Z,34.30
2023-02-04T05:06:28.069Z,32.80
2023-02-04T05:07:28.043Z,25.90
2023-02-04T05:08:28.012Z,31.60
2023-02-04T05:09:27.994Z,32.40
2023-02-04T05:10:27.979Z,31.40
2023-02-04T05:11:27.930Z,25.40
2023-02-04T05:12:27.898Z,28.70
2023-02-04T05:13:27.873Z,30.30
2023-02-04T05:14:27.846Z,29.00
2023-02-04T05:15:27.822Z,36.90
2023-02-04T05:16:27.864Z,23.70
2023-02-04T05:17:28.751Z,35.60
2023-02-04T05:18:27.733Z,36.60
2023-02-04T05:19:27.707Z,26.40
2023-02-04T05:20:27.679Z,28.10
2023-02-04T05:21:27.675Z,34.60
2023-02-04T05:22:27.631Z,36.20
2023-02-04T05:23:27.594Z,35.40
2023-02-04T05:24:27.564Z,38.00
2023-02-04T05:25:27.539Z,33.00
2023-02-04T05:26:30.595Z,32.90
2023-02-04T05:27:27.488Z,32.50
2023-02-04T05:28:27.467Z,38.20
2023-02-04T05:29:27.426Z,29.10
2023-02-04T05:30:27.437Z,22.60
2023-02-04T05:31:27.444Z,30.90
2023-02-04T05:32:27.341Z,34.60
2023-02-04T05:33:27.314Z,28.40
2023-02-04T05:34:27.284Z,32.10
2023-02-04T05:35:27.257Z,29.30
2023-02-04T05:36:27.223Z,28.40
2023-02-04T05:37:27.229Z,33.00
2023-02-04T05:38:27.261Z,27.60
2023-02-04T05:39:27.157Z,22.00
2023-02-04T05:40:27.109Z,27.90
2023-02-04T05:41:27.095Z,38.30
2023-02-04T05:42:27.057Z,36.40
2023-02-04T05:43:27.029Z,31.40
2023-02-04T05:44:27.609Z,37.80
2023-02-04T05:45:27.005Z,34.40
2023-02-04T05:46:26.946Z,32.20
2023-02-04T05:47:26.917Z,29.70
2023-02-04T05:48:26.956Z,36.50
2023-02-04T05:49:26.865Z,22.50
2023-02-04T05:50:26.829Z,29.60
2023-02-04T05:51:26.806Z,31.50
2023-02-04T05:52:26.773Z,28.90
2023-02-04T05:53:26.771Z,25.30
2023-02-04T05:54:26.719Z,27.60
2023-02-04T05:55:26.690Z,28.10
2023-02-04T05:56:26.662Z,25.40
2023-02-04T05:57:26.633Z,23.60
2023-02-04T05:58:26.607Z,39.00
2023-02-04T05:59:26.582Z,34.90
2023-02-04T06:00:26.551Z,38.70
2023-02-04T06:01:26.528Z,26.90
2023-02-04T06:02:26.493Z,36.60
2023-02-04T06:03:26.507Z,33.00
2023-02-04T06:04:26.488Z,31.80
2023-02-04T06:05:26.410Z,43.30
2023-02-04T06:06:26.388Z,27.90
2023-02-04T06:07:26.358Z,33.40
2023-02-04T06:08:26.323Z,30.20
2023-02-04T06:09:26.318Z,30.90
2023-02-04T06:10:26.267Z,29.80
2023-02-04T06:11:26.246Z,34.90
2023-02-04T06:12:26.215Z,33.00
2023-02-04T06:13:26.192Z,34.50
2023-02-04T06:14:26.157Z,36.30
2023-02-04T06:15:26.140Z,33.30
2023-02-04T06:16:26.125Z,36.60
2023-02-04T06:17:26.074Z,33.50
2023-02-04T06:18:26.046Z,25.40
2023-02-04T06:19:26.019Z,38.30
2023-02-04T06:20:25.991Z,31.80
2023-02-04T06:21:25.963Z,40.20
2023-02-04T06:22:25.933Z,43.40
2023-02-04T06:23:25.916Z,42.90
2023-02-04T06:24:25.878Z,32.70
2023-02-04T06:25:25.881Z,31.80
2023-02-04T06:26:25.828Z,36.00
2023-02-04T06:27:25.798Z,28.80
2023-02-04T06:28:25.769Z,30.80
2023-02-04T06:29:25.748Z,39.10
2023-02-04T06:30:25.742Z,42.20
2023-02-04T06:31:25.819Z,37.30
2023-02-04T06:32:25.656Z,38.60
2023-02-04T06:33:25.634Z,31.70
2023-02-04T06:34:25.623Z,40.20
2023-02-04T06:35:25.579Z,37.30
2023-02-04T06:36:25.542Z,32.10
2023-02-04T06:37:25.524Z,32.00
2023-02-04T06:38:25.488Z,37.70
2023-02-04T06:39:25.470Z,29.80
2023-02-04T06:40:25.442Z,34.50
2023-02-04T06:41:25.434Z,33.80
2023-02-04T06:42:25.392Z,33.30
2023-02-04T06:43:25.349Z,25.50
2023-02-04T06:44:25.327Z,37.10
2023-02-04T06:45:25.295Z,32.50
2023-02-04T06:46:25.293Z,35.80
2023-02-04T06:47:25.242Z,39.30
2023-02-04T06:48:25.216Z,30.40
2023-02-04T06:49:25.195Z,27.50
2023-02-04T06:50:25.159Z,27.90
2023-02-04T06:51:25.145Z,32.70
2023-02-04T06:52:25.102Z,39.40
2023-02-04T06:53:25.084Z,46.30
2023-02-04T06:54:25.054Z,41.70
2023-02-04T06:55:25.019Z,37.40
2023-02-04T06:56:24.989Z,39.70
2023-02-04T06:57:24.993Z,47.90
2023-02-04T06:58:24.948Z,34.50
2023-02-04T06:59:24.929Z,35.80
2023-02-04T07:00:24.876Z,44.00
2023-02-04T07:01:24.977Z,36.40
2023-02-04T07:02:24.886Z,41.00
2023-02-04T07:03:24.797Z,33.70
2023-02-04T07:04:24.771Z,46.10
2023-02-04T07:05:24.741Z,38.10
2023-02-04T07:06:24.721Z,33.20
2023-02-04T07:07:24.687Z,35.60
2023-02-04T07:08:24.657Z,38.20
2023-02-04T07:09:24.635Z,32.10
2023-02-04T07:10:24.602Z,29.30
2023-02-04T07:11:24.590Z,30.40
2023-02-04T07:12:24.549Z,32.40
2023-02-04T07:13:24.579Z,31.10
2023-02-04T07:14:24.492Z,27.10
2023-02-04T07:15:24.466Z,31.20
2023-02-04T07:16:24.438Z,35.70
2023-02-04T07:17:24.414Z,32.10
2023-02-04T07:18:24.383Z,33.00
2023-02-04T07:19:24.360Z,29.80
2023-02-04T07:20:24.336Z,28.30
2023-02-04T07:21:24.304Z,33.90
2023-02-04T07:22:24.272Z,30.30
2023-02-04T07:23:24.242Z,34.70
2023-02-04T07:24:24.232Z,30.00
2023-02-04T07:25:24.191Z,34.00
2023-02-04T07:26:24.164Z,35.50
2023-02-04T07:27:24.138Z,41.40
2023-02-04T07:28:24.104Z,32.40
2023-02-04T07:29:25.970Z,39.50
2023-02-04T07:30:24.053Z,31.80
2023-02-04T07:31:24.139Z,32.70
2023-02-04T07:32:24.004Z,35.30
2023-02-04T07:33:23.969Z,32.60
2023-02-04T07:34:23.943Z,36.00
2023-02-04T07:35:23.912Z,31.00
2023-02-04T07:36:24.037Z,34.90
2023-02-04T07:37:23.853Z,34.60
2023-02-04T07:38:23.829Z,35.00
2023-02-04T07:39:23.798Z,34.60
2023-02-04T07:40:23.769Z,33.20
2023-02-04T07:41:23.738Z,29.70
2023-02-04T07:42:23.713Z,32.70
2023-02-04T07:43:23.682Z,34.70
2023-02-04T07:44:23.661Z,33.20
2023-02-04T07:45:23.645Z,36.10
2023-02-04T07:46:23.643Z,43.20
2023-02-04T07:47:23.570Z,32.50
2023-02-04T07:48:23.545Z,37.90
2023-02-04T07:49:23.514Z,32.50
2023-02-04T07:50:23.486Z,35.70
2023-02-04T07:51:23.463Z,31.20
2023-02-04T07:52:23.433Z,33.60
2023-02-04T07:53:23.402Z,31.70
2023-02-04T07:54:23.377Z,26.30
2023-02-04T07:55:23.356Z,34.30
2023-02-04T07:56:23.459Z,34.20
2023-02-04T07:57:23.300Z,27.30
2023-02-04T07:58:23.286Z,30.30
2023-02-04T07:59:23.237Z,30.20
2023-02-04T08:00:23.213Z,33.40
2023-02-04T08:01:23.270Z,32.90
2023-02-04T08:02:23.201Z,30.90
2023-02-04T08:03:23.127Z,34.60
2023-02-04T08:04:23.109Z,32.00
2023-02-04T08:05:23.070Z,35.40
2023-02-04T08:06:23.059Z,31.70
2023-02-04T08:07:23.013Z,28.40
2023-02-04T08:08:22.987Z,39.10
2023-02-04T08:09:22.970Z,33.50
2023-02-04T08:10:22.933Z,35.50
2023-02-04T08:11:22.912Z,40.20
2023-02-04T08:12:22.876Z,31.70
2023-02-04T08:13:22.859Z,31.10
2023-02-04T08:14:22.820Z,35.90
2023-02-04T08:15:22.792Z,31.80
2023-02-04T08:16:22.830Z,31.10
2023-02-04T08:17:22.756Z,33.10
2023-02-04T08:18:22.714Z,35.80
2023-02-04T08:19:22.690Z,35.10
2023-02-04T08:20:22.653Z,30.30
2023-02-04T08:21:22.629Z,38.40
2023-02-04T08:22:22.601Z,42.70
2023-02-04T08:23:22.581Z,28.00
2023-02-04T08:24:22.543Z,47.80
2023-02-04T08:25:22.520Z,34.30
2023-02-04T08:26:22.501Z,30.80
2023-02-04T08:27:22.457Z,32.10
2023-02-04T08:28:22.449Z,37.80
2023-02-04T08:29:22.412Z,33.40
2023-02-04T08:30:22.381Z,29.10
2023-02-04T08:31:22.464Z,38.00
2023-02-04T08:32:22.326Z,33.00
2023-02-04T08:33:22.322Z,28.80
2023-02-04T08:34:22.277Z,31.50
2023-02-04T08:35:22.241Z,37.10
2023-02-04T08:36:22.216Z,33.30
2023-02-04T08:37:22.183Z,30.90
2023-02-04T08:38:22.164Z,37.40
2023-02-04T08:39:22.127Z,25.70
2023-02-04T08:40:22.102Z,27.40
2023-02-04T08:41:22.076Z,28.80
2023-02-04T08:42:22.048Z,26.80
2023-02-04T08:43:22.017Z,30.00
2023-02-04T08:44:21.996Z,27.00
2023-02-04T08:45:21.971Z,23.90
2023-02-04T08:46:22.015Z,26.80
2023-02-04T08:47:21.923Z,31.60
2023-02-04T08:48:21.897Z,30.10
2023-02-04T08:49:21.939Z,27.70
2023-02-04T08:50:21.852Z,25.90
2023-02-04T08:51:21.817Z,30.50
2023-02-04T08:52:21.793Z,32.00
2023-02-04T08:53:21.766Z,34.00
2023-02-04T08:54:21.744Z,29.10
2023-02-04T08:55:21.713Z,27.50
2023-02-04T08:56:21.687Z,28.20
2023-02-04T08:57:21.665Z,27.20
2023-02-04T08:58:21.636Z,40.90
2023-02-04T08:59:21.616Z,30.60
2023-02-04T09:00:21.599Z,32.10
2023-02-04T09:01:21.639Z,21.70
2023-02-04T09:02:21.591Z,27.30
2023-02-04T09:03:21.506Z,22.60
2023-02-04T09:04:21.485Z,25.40
2023-02-04T09:05:21.465Z,23.60
2023-02-04T09:06:21.422Z,23.30
2023-02-04T09:07:21.394Z,34.00
2023-02-04T09:08:21.368Z,28.80
2023-02-04T09:09:23.005Z,24.30
2023-02-04T09:10:21.316Z,35.10
2023-02-04T09:11:21.288Z,30.80
2023-02-04T09:12:21.263Z,28.90
2023-02-04T09:13:21.233Z,25.60
2023-02-04T09:14:21.214Z,29.60
2023-02-04T09:15:21.185Z,27.60
2023-02-04T09:16:21.163Z,25.70
2023-02-04T09:17:21.123Z,23.70
2023-02-04T09:18:21.100Z,19.70
2023-02-04T09:19:21.070Z,22.80
2023-02-04T09:20:21.044Z,23.20
2023-02-04T09:21:21.034Z,20.00
2023-02-04T09:22:20.996Z,21.50
2023-02-04T09:23:20.962Z,25.80
2023-02-04T09:24:20.940Z,23.10
2023-02-04T09:25:20.923Z,21.00
2023-02-04T09:26:20.885Z,20.70
2023-02-04T09:27:20.881Z,19.40
2023-02-04T09:28:20.921Z,22.70
2023-02-04T09:29:20.837Z,23.20
2023-02-04T09:30:20.780Z,19.30
2023-02-04T09:31:20.890Z,25.80
2023-02-04T09:32:20.722Z,21.00
2023-02-04T09:33:20.712Z,21.00
2023-02-04T09:34:20.666Z,21.30
2023-02-04T09:35:20.649Z,18.00
2023-02-04T09:36:20.612Z,17.60
2023-02-04T09:37:20.601Z,19.80
2023-02-04T09:38:20.559Z,17.70
2023-02-04T09:39:20.534Z,13.80
2023-02-04T09:40:20.504Z,16.60
2023-02-04T09:41:20.479Z,13.40
2023-02-04T09:42:20.450Z,15.40
2023-02-04T09:43:20.423Z,16.20
2023-02-04T09:44:20.412Z,17.30
2023-02-04T09:45:20.377Z,19.60
2023-02-04T09:46:20.346Z,14.80
2023-02-04T09:47:20.327Z,13.60
2023-02-04T09:48:20.299Z,15.80
2023-02-04T09:49:20.263Z,13.10
2023-02-04T09:50:20.240Z,14.70
2023-02-04T09:51:20.214Z,10.90
2023-02-04T09:52:20.184Z,15.20
2023-02-04T09:53:20.216Z,11.70
2023-02-04T09:54:20.255Z,10.20
2023-02-04T09:55:20.090Z,10.90
2023-02-04T09:56:20.063Z,10.80
2023-02-04T09:57:20.036Z,13.10
2023-02-04T09:58:20.009Z,9.40
2023-02-04T09:59:19.972Z,11.70
2023-02-04T10:00:19.963Z,11.10
2023-02-04T10:01:20.031Z,12.50
2023-02-04T10:02:19.972Z,9.90
2023-02-04T10:03:19.887Z,15.20
2023-02-04T10:04:19.831Z,11.00
2023-02-04T10:05:21.788Z,12.60
2023-02-04T10:06:19.777Z,8.70
2023-02-04T10:07:19.750Z,12.60
2023-02-04T10:08:19.720Z,15.10
2023-02-04T10:09:19.714Z,13.70
2023-02-04T10:10:19.783Z,11.90
2023-02-04T10:11:19.636Z,12.90
2023-02-04T10:12:19.608Z,12.60
2023-02-04T10:13:19.590Z,14.90
2023-02-04T10:14:19.577Z,11.90
2023-02-04T10:15:19.520Z,9.20
2023-02-04T10:16:19.524Z,16.80
2023-02-04T10:17:19.469Z,13.10
2023-02-04T10:18:19.443Z,11.50
2023-02-04T10:19:19.435Z,14.90
2023-02-04T10:20:19.385Z,15.60
2023-02-04T10:21:19.360Z,13.70
2023-02-04T10:22:19.331Z,17.70
2023-02-04T10:23:19.302Z,16.70
2023-02-04T10:24:19.276Z,15.90
2023-02-04T10:25:19.261Z,13.70
2023-02-04T10:26:19.219Z,12.50
2023-02-04T10:27:19.197Z,10.50
2023-02-04T10:28:19.193Z,14.40
2023-02-04T10:29:19.147Z,13.80
2023-02-04T10:30:19.192Z,12.10
2023-02-04T10:31:19.259Z,8.90
2023-02-04T10:32:19.060Z,15.50
2023-02-04T10:33:19.033Z,14.60
2023-02-04T10:34:19.313Z,9.60
2023-02-04T10:35:18.976Z,11.00
2023-02-04T10:36:18.951Z,12.10
2023-02-04T10:37:18.919Z,12.40
2023-02-04T10:38:18.895Z,14.10
2023-02-04T10:39:18.865Z,16.40
2023-02-04T10:40:18.898Z,13.70
2023-02-04T10:41:18.835Z,12.70
2023-02-04T10:42:18.787Z,12.10
2023-02-04T10:43:18.761Z,12.30
2023-02-04T10:44:18.734Z,13.40
2023-02-04T10:45:18.704Z,12.40
2023-02-04T10:46:18.696Z,11.90
2023-02-04T10:47:18.649Z,11.60
2023-02-04T10:48:18.621Z,12.30
2023-02-04T10:49:18.590Z,15.00
2023-02-04T10:50:18.649Z,9.90
2023-02-04T10:51:18.543Z,12.80
2023-02-04T10:52:18.518Z,10.70
2023-02-04T10:53:18.492Z,16.30
2023-02-04T10:54:18.459Z,13.10
2023-02-04T10:55:18.430Z,13.80
2023-02-04T10:56:18.400Z,14.70
2023-02-04T10:57:19.467Z,16.90
2023-02-04T10:58:18.347Z,11.00
2023-02-04T10:59:18.320Z,15.40
2023-02-04T11:00:18.402Z,14.90
2023-02-04T11:01:18.335Z,15.40
2023-02-04T11:02:18.238Z,12.20
2023-02-04T11:03:18.258Z,15.60
2023-02-04T11:04:18.181Z,12.90
2023-02-04T11:05:18.164Z,18.00
2023-02-04T11:06:18.130Z,17.80
2023-02-04T11:07:18.105Z,16.90
2023-02-04T11:08:18.074Z,16.00
2023-02-04T11:09:18.049Z,20.80
2023-02-04T11:10:18.020Z,9.40
2023-02-04T11:11:17.994Z,17.30
2023-02-04T11:12:17.965Z,15.10
2023-02-04T11:13:17.957Z,14.80
2023-02-04T11:14:17.910Z,14.50
2023-02-04T11:15:17.912Z,13.90
2023-02-04T11:16:17.921Z,10.70
2023-02-04T11:17:17.829Z,18.50
2023-02-04T11:18:17.801Z,13.10
2023-02-04T11:19:17.773Z,12.50
2023-02-04T11:20:17.852Z,18.10
2023-02-04T11:21:19.358Z,8.30
2023-02-04T11:22:17.694Z,13.60
2023-02-04T11:23:17.666Z,17.00
2023-02-04T11:24:17.640Z,10.80
2023-02-04T11:25:17.613Z,14.40
2023-02-04T11:26:17.581Z,15.20
2023-02-04T11:27:17.561Z,16.20
2023-02-04T11:28:17.564Z,12.70
2023-02-04T11:29:17.518Z,12.10
2023-02-04T11:30:17.472Z,12.00
2023-02-04T11:31:17.516Z,12.30
2023-02-04T11:32:17.424Z,13.00
2023-02-04T11:33:17.392Z,14.30
2023-02-04T11:34:17.364Z,13.20
2023-02-04T11:35:17.337Z,15.10
2023-02-04T11:36:17.311Z,15.00
2023-02-04T11:37:17.280Z,14.70
2023-02-04T11:38:17.256Z,11.30
2023-02-04T11:39:17.227Z,10.90
2023-02-04T11:40:17.203Z,13.20
2023-02-04T11:41:17.173Z,14.90
2023-02-04T11:42:17.142Z,15.80
2023-02-04T11:43:17.114Z,15.10
2023-02-04T11:44:17.096Z,15.00
2023-02-04T11:45:17.091Z,12.90
2023-02-04T11:46:17.125Z,11.50
2023-02-04T11:47:17.009Z,15.00
2023-02-04T11:48:16.976Z,14.90
2023-02-04T11:49:16.963Z,11.10
2023-02-04T11:50:16.927Z,15.90
2023-02-04T11:51:16.894Z,19.00
2023-02-04T11:52:16.879Z,15.80
2023-02-04T11:53:16.842Z,14.70
2023-02-04T11:54:16.816Z,13.10
2023-02-04T11:55:16.794Z,13.60
2023-02-04T11:56:16.758Z,12.30
2023-02-04T11:57:16.741Z,10.10
2023-02-04T11:58:16.708Z,13.80
2023-02-04T11:59:16.734Z,15.20
2023-02-04T12:00:16.648Z,14.80
2023-02-04T12:01:16.644Z,13.40
2023-02-04T12:02:16.712Z,16.00
2023-02-04T12:03:16.572Z,13.80
2023-02-04T12:04:16.542Z,7.80
2023-02-04T12:05:16.524Z,12.00
2023-02-04T12:06:16.490Z,12.20
2023-02-04T12:07:16.465Z,14.30
2023-02-04T12:08:16.438Z,10.40
2023-02-04T12:09:16.426Z,9.30
2023-02-04T12:10:16.382Z,14.00
2023-02-04T12:11:16.356Z,14.40
2023-02-04T12:12:16.363Z,17.10
2023-02-04T12:13:16.298Z,17.10
2023-02-04T12:14:16.274Z,15.50
2023-02-04T12:15:16.244Z,15.30
2023-02-04T12:16:16.301Z,16.90
2023-02-04T12:17:16.209Z,16.40
2023-02-04T12:18:16.164Z,11.80
2023-02-04T12:19:16.139Z,16.80
2023-02-04T12:20:16.109Z,18.30
2023-02-04T12:21:16.084Z,16.70
2023-02-04T12:22:16.056Z,11.00
2023-02-04T12:23:16.033Z,10.90
2023-02-04T12:24:16.005Z,12.80
2023-02-04T12:25:15.982Z,10.50
2023-02-04T12:26:15.948Z,16.30
2023-02-04T12:27:15.937Z,16.20
2023-02-04T12:28:15.914Z,14.60
2023-02-04T12:29:15.919Z,18.50
2023-02-04T12:30:15.837Z,15.10
2023-02-04T12:31:15.980Z,19.30
2023-02-04T12:32:15.786Z,18.00
2023-02-04T12:33:15.822Z,14.70
2023-02-04T12:34:15.729Z,18.40
2023-02-04T12:35:15.756Z,14.60
2023-02-04T12:36:15.678Z,16.60
2023-02-04T12:37:15.661Z,15.00
2023-02-04T12:38:15.635Z,16.40
2023-02-04T12:39:15.595Z,17.80
2023-02-04T12:40:15.584Z,24.00
2023-02-04T12:41:15.543Z,11.70
2023-02-04T12:42:15.517Z,13.60
2023-02-04T12:43:15.537Z,15.90
2023-02-04T12:44:15.472Z,16.30
2023-02-04T12:45:15.440Z,16.60
2023-02-04T12:46:15.488Z,16.30
2023-02-04T12:47:15.379Z,19.80
2023-02-04T12:48:15.383Z,13.10
2023-02-04T12:49:15.417Z,19.20
2023-02-04T12:50:15.315Z,17.00
2023-02-04T12:51:15.270Z,17.50
2023-02-04T12:52:15.236Z,17.30
2023-02-04T12:53:15.277Z,12.90